Airfield :
LOGIN :

Register | Disclaimer

   EN    FR    IT 

 










Legend :    VFR   Marginal VFR   IFR   Intensive IFR   Very Intensive IFR
Visi :
Ceiling :
>= 8 km
>= 3000ft
5 to 8 km
1000 to 3000 ft
1500m to 5 km
500 to 1000 ft
800 to 1500m
200 to 500 ft
< 800m
< 200 ft
Symbols :   Thunderstorms  Fog  Heavy snow  Heavy precipitations  Wind > 20 kt
SIGMETs :     Misc.  Thunderstorms  Icing  Turbulence  Mountain Waves  Volcanic Ashes






- Airport Elevation : 2835 ft
- IATA code : ISE


LTFC - Suleyman Demirel

CURRENT METAR :
  • 200050Z 00000KT CAVOK M08/M12 Q1025 RMK RWY23 27004KT 240V300

EXPIRED METARs :
  • 200020Z 00000KT CAVOK M09/M13 Q1025 RMK RWY23 28005KT
  • 192350Z VRB01KT CAVOK M09/M12 Q1025 RMK RWY23 VRB03KT
  • 192320Z 31007KT CAVOK M08/M12 Q1025 RMK RWY23 VRB03KT
  • 192250Z 29007KT 240V320 CAVOK M08/M12 Q1025 RMK RWY23 34008KT
  • 192220Z 34011KT CAVOK M07/M12 Q1025 RMK RWY23 36008KT

TAF TAF LTFC
Valid from the 20 at 00:00 until the 21 at 00:00 UTC


192240Z 2000/2024 34012KT CAVOK
BECMG 2002/2005 VRB02KT



MET'MAP, your aeronautical weather chart ! - Copyright ORBIFLY December 2007 - Disclaimer

ORBIFLY MET'MAP TEAM :

Programming & Development : Alexandra Zaïnal
Concept & original design : Baudouin d'Aumeries
Assistance for programming : Marc-Olivier Méhu
Technical & hardware support : Manuel Goepfert

Contact : metmap@orbifly.com




SOURCES & CREDITS :

   NOAA